Omak Municipal Airport

Current Flights

Departures
Number Departure To Airline
Arrivals
Number Arrival From Airline
Info
Name: Omak Municipal Airport
Identifier:  OMK/KOMK
Local Time:  19. May 09:11
Flights per Day
0 flights
Distance: 213km (132mi)
Punctuality
60% (0 flights per day delayed)
Delay Average: 66 minutes
Current Weather
 10 C (Humidity: 76%)
  5kt (9km/h / 5mph) from 340°
  Broken clouds at 6,500 feet (1,981 meter)
  16km (10 mi.)
 METAR KOMK 190853Z AUTO 34005KT 10SM BKN065 10/06 A2979 RMK AO2 SLP086 T01000061 50001

Current Delays

Departures
N/A
Arrivals
N/A

Destinations

Top Destinations
Airport Flights
per week
Seats
per week
  Seattle (BFI) <1 - 0 0
  Arlington (QQW) <1 - 0 0
  Colorado Springs (COS) <1 - 0 0
  Spokane (SFF) <1 - 0 0
  Palmer (PAQ) <1 - 0 0
  Olympia (OLM) <1 - 0 0

Airlines & Planes

Top Airlines
Airline Flights
per Day
Seats
per Day
  Ameriflight <1 -
  Novair <1 -
Jet Charter Inc ( Franklin Lakes Nj ) <1 -
  Flybe Nordic <1 -
  Nolinor Aviation <1 -
Top Plane Types
Manufacturer Model Flights Seats
Beech C-99 Airliner 0.9/day - 0
Cessna C172 0.2/day - 0
Pilatus PC-12 0.0/day - 0